Time;durP1;ratioP1;P1;durP2;ratioP2;P2;SDS_P1;SDS_P2;PMS_P1;PMS_P2;Temp;Humidity;BMP_temperature;BMP_pressure;BME280_temperature;BME280_humidity;BME280_pressure;Samples;Min_cycle;Max_cycle;Signal;HPM_P1;HPM_P2
2021/08/21 00:01:52;;;;;;;0.52;0.52;;;10.10;99.90;;;;;;5039907;28;20302;-83
2021/08/21 00:04:17;;;;;;;0.52;0.52;;;10.00;99.90;;;;;;5039975;28;20641;-86
2021/08/21 00:06:44;;;;;;;0.70;0.70;;;10.00;99.90;;;;;;5040763;28;20205;-86
2021/08/21 00:09:11;;;;;;;0.60;0.60;;;9.80;99.90;;;;;;5039627;28;20229;-86
2021/08/21 00:11:37;;;;;;;8.05;4.30;;;9.80;99.90;;;;;;5057301;28;20213;-85
2021/08/21 00:14:03;;;;;;;0.60;0.60;;;9.60;99.90;;;;;;5040551;28;20684;-85
2021/08/21 00:16:30;;;;;;;0.65;0.65;;;9.50;99.90;;;;;;5035885;28;20288;-85
2021/08/21 00:18:57;;;;;;;0.70;0.70;;;9.50;99.90;;;;;;5040656;28;20301;-85
2021/08/21 00:21:23;;;;;;;0.60;0.60;;;9.50;99.90;;;;;;5039206;28;20259;-84
2021/08/21 00:23:48;;;;;;;0.60;0.60;;;9.50;99.90;;;;;;5039400;28;20212;-86
2021/08/21 00:26:14;;;;;;;0.60;0.60;;;9.40;99.90;;;;;;5041957;28;20202;-85
2021/08/21 00:28:40;;;;;;;0.70;0.70;;;9.50;99.90;;;;;;5040689;28;20732;-85
2021/08/21 00:31:06;;;;;;;0.70;0.70;;;9.50;99.90;;;;;;5039899;28;20225;-85
2021/08/21 00:33:32;;;;;;;0.50;0.50;;;9.40;99.90;;;;;;5054540;28;20206;-86
2021/08/21 00:35:57;;;;;;;0.77;0.77;;;9.30;99.90;;;;;;5036029;28;20725;-85
2021/08/21 00:38:23;;;;;;;0.63;0.63;;;9.30;99.90;;;;;;5037441;28;20225;-85
2021/08/21 00:40:49;;;;;;;0.60;0.60;;;9.40;99.90;;;;;;5036438;28;20201;-85
2021/08/21 00:43:19;;;;;;;0.70;0.70;;;9.50;99.90;;;;;;5029566;28;20267;-85
2021/08/21 00:45:45;;;;;;;0.60;0.60;;;9.50;99.90;;;;;;5025399;28;20280;-85
2021/08/21 00:48:11;;;;;;;0.60;0.60;;;9.50;99.90;;;;;;5035978;28;20562;-85
2021/08/21 00:50:37;;;;;;;1.60;1.00;;;9.60;99.90;;;;;;5036978;28;20197;-86
2021/08/21 00:53:03;;;;;;;0.70;0.70;;;9.80;99.90;;;;;;5036039;28;20197;-86
2021/08/21 00:55:29;;;;;;;0.70;0.70;;;10.00;99.90;;;;;;5036561;28;20520;-85
2021/08/21 00:57:55;;;;;;;0.60;0.60;;;10.00;99.90;;;;;;5036300;28;20244;-85
2021/08/21 01:00:22;;;;;;;0.60;0.60;;;9.90;99.90;;;;;;5053935;28;20240;-85
2021/08/21 01:02:48;;;;;;;0.60;0.60;;;10.10;99.90;;;;;;5045550;22;20280;-66
2021/08/21 01:05:15;;;;;;;0.47;0.47;;;10.10;99.90;;;;;;5033559;28;20206;-67
2021/08/21 01:07:41;;;;;;;0.57;0.57;;;10.00;99.90;;;;;;5032035;28;20264;-67
2021/08/21 01:10:12;;;;;;;0.60;0.60;;;9.90;99.90;;;;;;5015904;28;20204;-67
2021/08/21 01:12:39;;;;;;;0.60;0.60;;;9.80;99.90;;;;;;5032899;28;20193;-67
2021/08/21 01:15:06;;;;;;;0.52;0.52;;;9.60;99.90;;;;;;5032190;28;20309;-66
2021/08/21 01:17:33;;;;;;;0.60;0.60;;;9.60;99.90;;;;;;5033485;28;20206;-67
2021/08/21 01:19:59;;;;;;;0.60;0.60;;;9.50;99.90;;;;;;5034363;28;20698;-67
2021/08/21 01:22:27;;;;;;;0.55;0.55;;;9.40;99.90;;;;;;5034317;28;20277;-66
2021/08/21 01:24:56;;;;;;;0.70;0.70;;;9.30;99.90;;;;;;5032057;28;20214;-67
2021/08/21 01:27:33;;;;;;;0.60;0.60;;;9.30;99.90;;;;;;5032944;28;20214;-67
2021/08/21 01:30:00;;;;;;;0.60;0.60;;;9.20;99.90;;;;;;5034471;28;20648;-67
2021/08/21 01:32:27;;;;;;;0.60;0.60;;;9.10;99.90;;;;;;5034241;28;20317;-67
2021/08/21 01:34:54;;;;;;;0.60;0.60;;;9.10;99.90;;;;;;5033000;28;20201;-66
2021/08/21 01:37:21;;;;;;;0.60;0.60;;;9.20;99.90;;;;;;5034381;28;20304;-66
2021/08/21 01:39:49;;;;;;;0.52;0.52;;;9.50;99.90;;;;;;5032802;28;20673;-69
2021/08/21 01:42:15;;;;;;;0.60;0.60;;;9.60;99.90;;;;;;5034255;28;20504;-67
2021/08/21 01:44:41;;;;;;;0.60;0.60;;;9.60;99.90;;;;;;5032826;28;20198;-67
2021/08/21 01:47:08;;;;;;;0.70;0.70;;;9.70;99.90;;;;;;5032412;28;20715;-66
2021/08/21 01:49:34;;;;;;;0.60;0.60;;;9.70;99.90;;;;;;5032586;28;20216;-66
2021/08/21 01:52:07;;;;;;;0.70;0.70;;;9.60;99.90;;;;;;5032503;28;20207;-67
2021/08/21 01:54:34;;;;;;;0.60;0.60;;;9.70;99.90;;;;;;5031890;28;20277;-67
2021/08/21 01:57:02;;;;;;;0.68;0.68;;;9.80;99.90;;;;;;5033794;28;20344;-67
2021/08/21 01:59:37;;;;;;;0.60;0.60;;;9.80;99.90;;;;;;5032238;28;20216;-67
2021/08/21 02:02:05;;;;;;;0.60;0.60;;;9.70;99.90;;;;;;5027658;28;20673;-67
2021/08/21 02:04:31;;;;;;;0.60;0.60;;;9.70;99.90;;;;;;5053202;28;20228;-67
2021/08/21 02:06:57;;;;;;;0.70;0.70;;;9.70;99.90;;;;;;5052195;28;20676;-67
2021/08/21 02:09:24;;;;;;;0.60;0.60;;;9.80;99.90;;;;;;5044432;28;20209;-67
2021/08/21 02:11:52;;;;;;;0.50;0.50;;;9.80;99.90;;;;;;5053528;28;20543;-67
2021/08/21 02:14:19;;;;;;;0.68;0.68;;;9.60;99.90;;;;;;5035392;28;20213;-66
2021/08/21 02:16:47;;;;;;;0.70;0.70;;;9.50;99.90;;;;;;5053425;28;20668;-67
2021/08/21 02:19:13;;;;;;;0.60;0.60;;;9.40;99.90;;;;;;5047355;28;20570;-67
2021/08/21 02:21:38;;;;;;;0.52;0.52;;;9.50;99.90;;;;;;5043213;28;20336;-66
2021/08/21 02:24:06;;;;;;;0.68;0.68;;;9.40;99.90;;;;;;5050765;28;20186;-66
2021/08/21 02:26:37;;;;;;;0.70;0.70;;;9.30;99.90;;;;;;5030635;28;20202;-66
2021/08/21 02:29:03;;;;;;;0.57;0.57;;;9.20;99.90;;;;;;5050374;28;20205;-69
2021/08/21 02:31:28;;;;;;;0.60;0.60;;;9.10;99.90;;;;;;5051565;28;20683;-66
2021/08/21 02:33:54;;;;;;;0.60;0.60;;;9.10;99.90;;;;;;5033796;28;20267;-66
2021/08/21 02:36:20;;;;;;;0.60;0.60;;;9.20;99.90;;;;;;5033651;28;20212;-67
2021/08/21 02:38:46;;;;;;;0.60;0.60;;;9.30;99.90;;;;;;5035203;28;20340;-67
2021/08/21 02:41:13;;;;;;;0.50;0.50;;;9.30;99.90;;;;;;5052947;28;20212;-70
2021/08/21 02:43:38;;;;;;;0.52;0.52;;;9.40;99.90;;;;;;5048027;28;20746;-70
2021/08/21 02:46:04;;;;;;;0.88;0.88;;;9.50;99.90;;;;;;5045743;28;20197;-69
2021/08/21 02:48:30;;;;;;;0.70;0.70;;;9.40;99.90;;;;;;5049930;28;20290;-69
2021/08/21 02:50:56;;;;;;;0.50;0.50;;;9.30;99.90;;;;;;5052224;28;20201;-69
2021/08/21 02:53:22;;;;;;;0.60;0.60;;;9.30;99.90;;;;;;5043990;28;20613;-69
2021/08/21 02:55:47;;;;;;;0.60;0.60;;;9.10;99.90;;;;;;5034184;28;20270;-67
2021/08/21 02:58:13;;;;;;;0.57;0.57;;;9.10;99.90;;;;;;5034241;28;20209;-69
2021/08/21 03:00:41;;;;;;;0.50;0.50;;;9.00;99.90;;;;;;5047325;28;20233;-70
2021/08/21 03:03:07;;;;;;;0.57;0.57;;;9.00;99.90;;;;;;5029323;28;20224;-68
2021/08/21 03:05:33;;;;;;;0.65;0.65;;;8.90;99.90;;;;;;5050242;28;20280;-68
2021/08/21 03:07:59;;;;;;;0.60;0.60;;;9.00;99.90;;;;;;5043606;28;20190;-69
2021/08/21 03:10:25;;;;;;;0.70;0.70;;;9.00;99.90;;;;;;5051447;28;20212;-69
2021/08/21 03:12:50;;;;;;;0.60;0.60;;;8.90;99.90;;;;;;5051808;28;20212;-69
2021/08/21 03:15:16;;;;;;;0.60;0.60;;;8.90;99.90;;;;;;5052060;28;20285;-69
2021/08/21 03:17:42;;;;;;;0.60;0.60;;;9.00;99.90;;;;;;5051886;28;20233;-69
2021/08/21 03:20:09;;;;;;;0.60;0.60;;;9.00;99.90;;;;;;5044499;28;20231;-69
2021/08/21 03:22:34;;;;;;;0.80;0.80;;;9.00;99.90;;;;;;5046859;28;20523;-67
2021/08/21 03:25:00;;;;;;;0.68;0.68;;;8.90;99.90;;;;;;5050385;28;20221;-67
2021/08/21 03:27:26;;;;;;;0.70;0.70;;;8.70;99.90;;;;;;5041964;28;20193;-67
2021/08/21 03:29:51;;;;;;;0.60;0.60;;;8.60;99.90;;;;;;5032358;28;20209;-67
2021/08/21 03:32:17;;;;;;;0.98;0.98;;;8.50;99.90;;;;;;5050233;28;20202;-67
2021/08/21 03:34:44;;;;;;;0.60;0.60;;;8.40;99.90;;;;;;5046310;28;20288;-67
2021/08/21 03:37:11;;;;;;;0.70;0.70;;;8.50;99.90;;;;;;5047940;28;20579;-67
2021/08/21 03:39:37;;;;;;;0.70;0.70;;;8.60;99.90;;;;;;5051241;28;20570;-67
2021/08/21 03:42:04;;;;;;;0.60;0.60;;;8.70;99.90;;;;;;5051762;28;20198;-67
2021/08/21 03:44:29;;;;;;;0.60;0.60;;;8.70;99.90;;;;;;5033633;28;20605;-68
2021/08/21 03:46:55;;;;;;;0.50;0.50;;;8.80;99.90;;;;;;5032312;28;20257;-67
2021/08/21 03:49:21;;;;;;;0.50;0.50;;;8.90;99.90;;;;;;5051229;28;20224;-67
2021/08/21 03:51:47;;;;;;;0.70;0.70;;;8.90;99.90;;;;;;5050010;28;20213;-67
2021/08/21 03:54:12;;;;;;;0.55;0.55;;;9.00;99.90;;;;;;5050071;28;20270;-67
2021/08/21 03:56:38;;;;;;;0.70;0.70;;;9.00;99.90;;;;;;5033274;28;20240;-67
2021/08/21 03:59:04;;;;;;;0.60;0.60;;;9.10;99.90;;;;;;5049779;28;20266;-67
2021/08/21 04:01:30;;;;;;;0.60;0.60;;;9.10;99.90;;;;;;5046875;28;20649;-68
2021/08/21 04:03:56;;;;;;;0.60;0.60;;;9.20;99.90;;;;;;5047291;28;20228;-67
2021/08/21 04:06:22;;;;;;;0.52;0.52;;;9.30;99.90;;;;;;5031093;28;20194;-67
2021/08/21 04:08:47;;;;;;;0.63;0.63;;;9.40;99.90;;;;;;5053630;28;20201;-67
2021/08/21 04:11:13;;;;;;;0.60;0.60;;;9.50;99.90;;;;;;5026376;28;20202;-67
2021/08/21 04:13:39;;;;;;;0.70;0.70;;;9.50;99.90;;;;;;5046922;28;20209;-67
2021/08/21 04:16:04;;;;;;;0.50;0.50;;;9.60;99.90;;;;;;5053185;28;20483;-67
2021/08/21 04:18:30;;;;;;;0.50;0.50;;;9.60;99.90;;;;;;5023372;28;20685;-67
2021/08/21 04:20:56;;;;;;;0.60;0.60;;;9.60;99.90;;;;;;5049473;28;20276;-66
2021/08/21 04:23:21;;;;;;;0.70;0.70;;;9.70;99.90;;;;;;5053315;28;20266;-67
2021/08/21 04:25:47;;;;;;;0.60;0.60;;;9.70;99.90;;;;;;5054477;28;20219;-67
2021/08/21 04:28:13;;;;;;;1.15;1.08;;;9.80;99.90;;;;;;5054716;28;20194;-66
2021/08/21 04:30:38;;;;;;;0.60;0.60;;;9.80;99.90;;;;;;5036385;28;20236;-67
2021/08/21 04:33:04;;;;;;;0.60;0.60;;;9.90;99.90;;;;;;5054954;28;20197;-67
2021/08/21 04:35:30;;;;;;;0.70;0.70;;;10.00;99.90;;;;;;5053290;28;20201;-68
2021/08/21 04:37:55;;;;;;;6.22;1.30;;;10.10;99.90;;;;;;5045565;28;20220;-67
2021/08/21 04:40:22;;;;;;;0.60;0.60;;;10.30;99.90;;;;;;5054180;28;20494;-68
2021/08/21 04:42:47;;;;;;;0.60;0.60;;;10.40;99.90;;;;;;5054838;28;20197;-67
2021/08/21 04:45:13;;;;;;;0.60;0.60;;;10.50;99.90;;;;;;5035376;28;20193;-67
2021/08/21 04:47:39;;;;;;;0.65;0.65;;;10.40;99.90;;;;;;5054436;28;20208;-67
2021/08/21 04:50:06;;;;;;;0.45;0.45;;;10.50;99.90;;;;;;5054249;28;20198;-67
2021/08/21 04:52:32;;;;;;;0.70;0.70;;;10.60;99.90;;;;;;5050079;28;20194;-67
2021/08/21 04:54:58;;;;;;;0.60;0.60;;;10.70;99.90;;;;;;5033263;28;20202;-67
2021/08/21 04:57:24;;;;;;;0.60;0.60;;;10.70;99.90;;;;;;5053396;28;20212;-67
2021/08/21 04:59:49;;;;;;;0.60;0.60;;;10.80;99.90;;;;;;5036816;28;20604;-67
2021/08/21 05:02:15;;;;;;;0.60;0.60;;;10.90;99.90;;;;;;5044394;28;20226;-68
2021/08/21 05:04:42;;;;;;;0.60;0.60;;;11.00;99.90;;;;;;5046371;28;20229;-67
2021/08/21 05:07:07;;;;;;;0.52;0.52;;;11.00;99.90;;;;;;5040674;28;20293;-67
2021/08/21 05:09:33;;;;;;;0.70;0.70;;;11.10;99.90;;;;;;5053630;28;20315;-67
2021/08/21 05:11:59;;;;;;;0.60;0.60;;;11.10;99.90;;;;;;5053934;28;20202;-67
2021/08/21 05:14:25;;;;;;;0.60;0.60;;;11.20;99.90;;;;;;5052538;28;20212;-66
2021/08/21 05:16:51;;;;;;;0.57;0.57;;;11.30;99.90;;;;;;5053504;28;20228;-69
2021/08/21 05:22:09;;;;;;;0.60;0.60;;;11.50;99.90;;;;;;5035152;28;20589;-66
2021/08/21 05:24:35;;;;;;;0.60;0.60;;;11.60;99.90;;;;;;5052141;28;20284;-67
2021/08/21 05:27:01;;;;;;;0.50;0.50;;;11.60;99.90;;;;;;5054103;28;20739;-67
2021/08/21 05:29:26;;;;;;;1.10;1.02;;;11.70;99.90;;;;;;5052246;28;20197;-67
2021/08/21 05:31:54;;;;;;;0.60;0.60;;;11.80;99.90;;;;;;5032478;28;20640;-67
2021/08/21 05:34:19;;;;;;;0.50;0.50;;;11.80;99.90;;;;;;5051482;28;20763;-69
2021/08/21 05:36:45;;;;;;;0.60;0.60;;;11.90;99.90;;;;;;5034324;28;20296;-67
2021/08/21 05:39:11;;;;;;;0.57;0.57;;;12.00;99.90;;;;;;5026355;28;20236;-67
2021/08/21 05:41:37;;;;;;;0.60;0.60;;;12.10;99.90;;;;;;5052978;28;20201;-67
2021/08/21 05:44:04;;;;;;;0.52;0.52;;;12.10;99.90;;;;;;5053447;28;20287;-66
2021/08/21 05:46:29;;;;;;;0.50;0.50;;;12.20;99.90;;;;;;5053474;28;20205;-67
2021/08/21 05:48:55;;;;;;;0.57;0.57;;;12.20;99.90;;;;;;5052479;28;20244;-67
2021/08/21 05:51:20;;;;;;;0.63;0.63;;;12.30;99.90;;;;;;5035838;28;20210;-67
2021/08/21 05:53:46;;;;;;;0.60;0.60;;;12.40;99.90;;;;;;5032511;28;20212;-67
2021/08/21 05:56:12;;;;;;;0.55;0.55;;;12.60;99.90;;;;;;5053034;28;20213;-67
2021/08/21 05:58:37;;;;;;;0.57;0.57;;;12.60;99.90;;;;;;5033516;28;20676;-67
2021/08/21 06:01:03;;;;;;;0.50;0.50;;;12.70;99.90;;;;;;5050874;28;20194;-68
2021/08/21 06:03:29;;;;;;;0.57;0.57;;;12.80;99.90;;;;;;5038843;28;20226;-67
2021/08/21 06:05:54;;;;;;;0.55;0.55;;;12.90;99.90;;;;;;5048847;28;20209;-67
2021/08/21 06:08:20;;;;;;;0.50;0.50;;;12.90;99.90;;;;;;5034491;28;20201;-67
2021/08/21 06:10:46;;;;;;;0.55;0.55;;;13.00;99.90;;;;;;5033548;28;20213;-67
2021/08/21 06:13:11;;;;;;;0.50;0.50;;;13.00;99.90;;;;;;5053084;28;20224;-67
2021/08/21 06:15:37;;;;;;;0.57;0.57;;;13.10;99.90;;;;;;5053278;28;21443;-67
2021/08/21 06:18:03;;;;;;;0.50;0.50;;;13.20;99.90;;;;;;5051435;28;20234;-67
2021/08/21 06:20:29;;;;;;;0.55;0.55;;;13.20;99.90;;;;;;5051005;28;20702;-68
2021/08/21 06:22:55;;;;;;;0.60;0.60;;;13.20;99.90;;;;;;5051254;28;20284;-68
2021/08/21 06:25:21;;;;;;;0.50;0.50;;;13.30;99.90;;;;;;5043397;28;20228;-67
2021/08/21 06:27:47;;;;;;;0.50;0.50;;;13.40;99.90;;;;;;5052632;28;20223;-67
2021/08/21 06:30:13;;;;;;;0.68;0.68;;;13.40;99.90;;;;;;5051820;28;20201;-67
2021/08/21 06:32:39;;;;;;;0.50;0.50;;;13.40;99.90;;;;;;5034594;28;20227;-67
2021/08/21 06:35:06;;;;;;;0.50;0.50;;;13.40;99.90;;;;;;5052302;28;20297;-67
2021/08/21 06:37:31;;;;;;;0.50;0.50;;;13.40;99.90;;;;;;5051020;28;20198;-68
2021/08/21 06:39:57;;;;;;;0.60;0.60;;;13.50;99.90;;;;;;5033918;28;20212;-67
2021/08/21 06:42:23;;;;;;;0.60;0.60;;;13.60;99.90;;;;;;5033486;28;20213;-68
2021/08/21 06:44:49;;;;;;;0.60;0.60;;;13.70;99.90;;;;;;5034196;28;20210;-67
2021/08/21 06:47:14;;;;;;;0.50;0.50;;;13.80;99.90;;;;;;5031853;28;20202;-67
2021/08/21 06:49:40;;;;;;;0.68;0.68;;;13.90;99.90;;;;;;5052282;28;20260;-67
2021/08/21 06:52:06;;;;;;;0.50;0.50;;;14.00;99.90;;;;;;5048209;28;20232;-67
2021/08/21 06:54:32;;;;;;;0.70;0.70;;;14.00;99.90;;;;;;5051912;28;20672;-67
2021/08/21 06:56:57;;;;;;;0.43;0.43;;;14.00;99.90;;;;;;5052095;28;20205;-67
2021/08/21 06:59:23;;;;;;;0.50;0.50;;;14.20;99.90;;;;;;5026252;28;20212;-67
2021/08/21 07:01:49;;;;;;;0.50;0.50;;;14.20;99.90;;;;;;5039692;28;20699;-67
2021/08/21 07:04:15;;;;;;;0.50;0.50;;;14.40;99.90;;;;;;5050464;28;20643;-67
2021/08/21 07:06:41;;;;;;;0.50;0.50;;;14.50;99.90;;;;;;5052172;28;20197;-68
2021/08/21 07:09:07;;;;;;;0.50;0.50;;;14.50;99.90;;;;;;5030047;28;20202;-67
2021/08/21 07:11:32;;;;;;;0.50;0.50;;;14.60;99.90;;;;;;5051815;28;20228;-67
2021/08/21 07:13:58;;;;;;;0.43;0.43;;;14.60;99.90;;;;;;5052150;28;20253;-69
2021/08/21 07:16:24;;;;;;;0.50;0.50;;;14.60;99.90;;;;;;5051782;28;20241;-68
2021/08/21 07:18:49;;;;;;;0.50;0.50;;;14.70;99.90;;;;;;5029590;28;20679;-68
2021/08/21 07:21:15;;;;;;;0.50;0.50;;;14.90;99.90;;;;;;5050171;28;20646;-69
2021/08/21 07:23:41;;;;;;;0.40;0.40;;;15.00;99.90;;;;;;5051793;28;20201;-67
2021/08/21 07:26:07;;;;;;;0.50;0.50;;;15.10;99.90;;;;;;5049929;28;20244;-68
2021/08/21 07:28:33;;;;;;;0.50;0.50;;;15.10;99.90;;;;;;5023022;28;20194;-68
2021/08/21 07:31:00;;;;;;;0.50;0.50;;;15.10;99.90;;;;;;5048227;28;20216;-70
2021/08/21 07:33:26;;;;;;;0.40;0.40;;;15.40;99.90;;;;;;5050638;28;20576;-70
2021/08/21 07:35:52;;;;;;;0.40;0.40;;;15.60;99.90;;;;;;5042936;28;20198;-70
2021/08/21 07:38:17;;;;;;;0.40;0.40;;;15.70;99.90;;;;;;5051362;28;20660;-70
2021/08/21 07:40:43;;;;;;;0.40;0.40;;;15.80;99.90;;;;;;5049905;28;20660;-71
2021/08/21 07:43:09;;;;;;;0.40;0.40;;;15.80;99.90;;;;;;5054973;28;20565;-69
2021/08/21 07:45:34;;;;;;;0.40;0.40;;;16.00;99.90;;;;;;5053847;28;20789;-68
2021/08/21 07:48:00;;;;;;;0.50;0.50;;;16.10;99.90;;;;;;5037499;28;20213;-70
2021/08/21 07:50:26;;;;;;;0.40;0.40;;;16.30;99.90;;;;;;5055091;28;20284;-71
2021/08/21 07:52:51;;;;;;;0.40;0.40;;;16.80;99.90;;;;;;5054076;28;20205;-71
2021/08/21 07:55:17;;;;;;;0.40;0.40;;;17.10;99.90;;;;;;5037496;28;20198;-71
2021/08/21 07:57:43;;;;;;;0.40;0.40;;;16.90;99.90;;;;;;5047917;28;20656;-67
2021/08/21 08:00:09;;;;;;;0.50;0.50;;;16.90;99.90;;;;;;5052709;28;20206;-70
2021/08/21 08:02:35;;;;;;;2.17;1.05;;;17.00;99.90;;;;;;5044755;28;20312;-68
2021/08/21 08:05:00;;;;;;;0.40;0.40;;;17.00;99.90;;;;;;5053807;28;20628;-69
2021/08/21 08:07:26;;;;;;;0.40;0.40;;;17.30;99.90;;;;;;5053760;28;20210;-69
2021/08/21 08:09:52;;;;;;;0.40;0.40;;;17.60;99.90;;;;;;5035518;28;20679;-69
2021/08/21 08:12:17;;;;;;;0.40;0.40;;;17.80;99.90;;;;;;5035414;28;20205;-70
2021/08/21 08:14:43;;;;;;;0.30;0.30;;;17.60;99.90;;;;;;5036640;28;20319;-67
2021/08/21 08:17:09;;;;;;;0.63;0.63;;;17.40;99.90;;;;;;5054046;28;20201;-67
2021/08/21 08:19:37;;;;;;;0.40;0.40;;;17.70;99.90;;;;;;5055011;28;20213;-67
2021/08/21 08:22:03;;;;;;;0.30;0.30;;;17.90;99.90;;;;;;5045954;28;20197;-67
2021/08/21 08:24:28;;;;;;;0.35;0.35;;;17.70;99.90;;;;;;5053341;28;20662;-66
2021/08/21 08:26:55;;;;;;;0.43;0.43;;;17.60;99.90;;;;;;5054550;28;20209;-75
2021/08/21 08:29:21;;;;;;;0.30;0.30;;;17.90;99.90;;;;;;5036507;28;20303;-75
2021/08/21 08:31:47;;;;;;;0.40;0.40;;;18.00;99.90;;;;;;5035455;28;20340;-73
2021/08/21 08:34:12;;;;;;;0.30;0.30;;;17.80;99.90;;;;;;5054784;28;20691;-74
2021/08/21 08:36:38;;;;;;;0.40;0.40;;;17.80;99.90;;;;;;5050026;28;20218;-69
2021/08/21 08:39:04;;;;;;;0.32;0.32;;;18.00;99.90;;;;;;5049958;28;20201;-71
2021/08/21 08:41:29;;;;;;;0.40;0.40;;;18.30;99.90;;;;;;5054093;28;20269;-72
2021/08/21 08:43:55;;;;;;;0.40;0.40;;;18.40;99.90;;;;;;5054305;28;20189;-72
2021/08/21 08:46:21;;;;;;;0.30;0.30;;;18.60;99.90;;;;;;5053174;28;20617;-72
2021/08/21 08:48:48;;;;;;;0.40;0.40;;;18.90;99.90;;;;;;5036329;28;20209;-70
2021/08/21 08:51:15;;;;;;;0.30;0.30;;;18.80;99.90;;;;;;5035930;28;20212;-75
2021/08/21 08:53:41;;;;;;;0.30;0.30;;;18.50;99.90;;;;;;5053272;28;20237;-73
2021/08/21 08:56:07;;;;;;;0.30;0.30;;;18.40;99.90;;;;;;5054114;28;20288;-73
2021/08/21 08:58:32;;;;;;;0.30;0.30;;;18.50;99.90;;;;;;5052527;28;20698;-73
2021/08/21 09:00:59;;;;;;;0.20;0.20;;;18.70;99.90;;;;;;5053439;28;20194;-73
2021/08/21 09:03:26;;;;;;;0.40;0.40;;;18.90;99.90;;;;;;5044299;28;20230;-75
2021/08/21 09:05:54;;;;;;;0.30;0.30;;;18.80;99.90;;;;;;5029723;28;20285;-71
2021/08/21 09:08:30;;;;;;;0.50;0.45;;;18.80;99.90;;;;;;5050026;28;20220;-75
2021/08/21 09:11:22;;;;;;;0.30;0.30;;;18.60;99.90;;;;;;5041341;28;20211;-74
2021/08/21 09:13:48;;;;;;;0.35;0.35;;;18.90;99.90;;;;;;5052209;28;20212;-72
2021/08/21 09:16:25;;;;;;;0.32;0.32;;;18.70;99.90;;;;;;5047623;28;20676;-72
2021/08/21 09:19:05;;;;;;;0.22;0.22;;;19.00;99.90;;;;;;5024967;28;20242;-73
2021/08/21 09:21:31;;;;;;;0.30;0.30;;;19.50;99.90;;;;;;5033484;28;20713;-72
2021/08/21 09:23:57;;;;;;;0.30;0.30;;;19.60;99.90;;;;;;5053269;28;20205;-72
2021/08/21 09:26:35;;;;;;;0.30;0.30;;;19.40;99.90;;;;;;5035752;28;20201;-75
2021/08/21 09:29:02;;;;;;;0.40;0.40;;;19.90;99.90;;;;;;5045856;28;20216;-72
2021/08/21 09:31:30;;;;;;;0.28;0.28;;;20.10;99.90;;;;;;5035109;28;20206;-71
2021/08/21 09:34:08;;;;;;;0.40;0.40;;;20.10;99.90;;;;;;5033814;28;20255;-72
2021/08/21 09:36:39;;;;;;;0.20;0.20;;;19.90;99.90;;;;;;5043916;28;20239;-72
2021/08/21 09:39:10;;;;;;;0.20;0.20;;;19.90;99.90;;;;;;5031617;28;20245;-72
2021/08/21 09:42:03;;;;;;;0.20;0.20;;;19.90;99.90;;;;;;5052761;28;20212;-74
2021/08/21 09:44:32;;;;;;;0.28;0.28;;;20.10;99.90;;;;;;5044794;28;20208;-73
2021/08/21 09:47:20;;;;;;;0.20;0.20;;;20.50;99.90;;;;;;5051789;28;20225;-74
2021/08/21 09:49:46;;;;;;;0.50;0.47;;;20.70;99.90;;;;;;5050628;28;20258;-73
2021/08/21 09:52:17;;;;;;;0.20;0.20;;;20.30;99.70;;;;;;5053026;28;20201;-71
2021/08/21 09:55:03;;;;;;;0.30;0.30;;;20.00;99.90;;;;;;5052412;28;20208;-75
2021/08/21 09:57:29;;;;;;;0.30;0.30;;;20.10;99.90;;;;;;5055778;28;20205;-68
2021/08/21 09:59:59;;;;;;;0.30;0.30;;;19.80;99.90;;;;;;5052864;28;20209;-69
2021/08/21 10:02:27;;;;;;;0.20;0.20;;;19.90;99.90;;;;;;5040507;28;20218;-71
2021/08/21 10:04:54;;;;;;;0.20;0.20;;;20.40;99.90;;;;;;5029033;28;20281;-70
2021/08/21 10:07:23;;;;;;;0.20;0.20;;;20.50;99.90;;;;;;5053421;28;20194;-71
2021/08/21 10:09:52;;;;;;;0.20;0.20;;;20.60;99.90;;;;;;5052866;28;20255;-70
2021/08/21 10:12:21;;;;;;;0.20;0.20;;;20.90;99.10;;;;;;5053104;28;20300;-71
2021/08/21 10:14:49;;;;;;;0.30;0.30;;;20.80;97.10;;;;;;5053354;28;20201;-70
2021/08/21 10:17:17;;;;;;;0.20;0.20;;;20.80;99.30;;;;;;5052780;28;20304;-70
2021/08/21 10:19:43;;;;;;;0.30;0.30;;;21.40;98.50;;;;;;5033189;28;20219;-68
2021/08/21 10:22:09;;;;;;;0.25;0.25;;;21.30;96.90;;;;;;5051004;28;20668;-70
2021/08/21 10:24:50;;;;;;;0.30;0.30;;;21.30;99.10;;;;;;5052507;28;20201;-68
2021/08/21 10:27:20;;;;;;;0.20;0.20;;;21.40;96.70;;;;;;5051118;28;20197;-70
2021/08/21 10:30:10;;;;;;;0.25;0.25;;;21.00;96.30;;;;;;5027114;28;20202;-70
2021/08/21 10:33:03;;;;;;;0.40;0.40;;;20.80;98.80;;;;;;5046717;28;20288;-70
2021/08/21 10:35:44;;;;;;;0.25;0.25;;;21.10;97.50;;;;;;5051942;28;20225;-70
2021/08/21 10:38:33;;;;;;;0.20;0.20;;;21.50;94.70;;;;;;5025315;28;20198;-71
2021/08/21 10:41:07;;;;;;;0.20;0.20;;;21.50;96.30;;;;;;5041445;28;20632;-70
2021/08/21 10:43:43;;;;;;;0.55;0.40;;;21.50;96.40;;;;;;5050687;28;20201;-69
2021/08/21 10:46:09;;;;;;;0.20;0.20;;;21.70;94.10;;;;;;5043803;28;20212;-70
2021/08/21 10:48:37;;;;;;;0.20;0.20;;;21.60;94.10;;;;;;5050771;28;20540;-69
2021/08/21 10:51:04;;;;;;;0.20;0.20;;;21.30;96.70;;;;;;5051091;28;20245;-70
2021/08/21 10:53:33;;;;;;;0.22;0.22;;;21.20;96.20;;;;;;5051005;28;20202;-69
2021/08/21 10:56:07;;;;;;;0.30;0.30;;;21.40;94.70;;;;;;5050387;28;20201;-69
2021/08/21 10:58:54;;;;;;;0.20;0.20;;;22.00;96.50;;;;;;5050926;28;20216;-72
2021/08/21 11:01:23;;;;;;;0.30;0.30;;;22.20;93.30;;;;;;5048349;28;20197;-72
2021/08/21 11:03:50;;;;;;;0.57;0.30;;;22.20;93.90;;;;;;5046503;28;20652;-70
2021/08/21 11:06:16;;;;;;;0.20;0.20;;;22.40;93.90;;;;;;5043192;28;20208;-73
2021/08/21 11:08:42;;;;;;;0.20;0.20;;;22.30;94.10;;;;;;5050291;28;20204;-72
2021/08/21 11:11:12;;;;;;;0.25;0.25;;;22.50;95.00;;;;;;5051516;28;20205;-71
2021/08/21 11:14:04;;;;;;;0.20;0.20;;;22.90;94.20;;;;;;5021957;28;20233;-72
2021/08/21 11:16:54;;;;;;;0.20;0.20;;;23.40;94.00;;;;;;5043355;28;20208;-70
2021/08/21 11:19:25;;;;;;;0.20;0.20;;;23.30;92.10;;;;;;5049835;28;20265;-71
2021/08/21 11:22:13;;;;;;;0.30;0.30;;;22.50;92.30;;;;;;5051207;28;20206;-71
2021/08/21 11:24:52;;;;;;;0.40;0.40;;;22.40;94.20;;;;;;5050042;28;20201;-70
2021/08/21 11:27:29;;;;;;;0.20;0.20;;;22.60;94.20;;;;;;5041973;28;20285;-70
2021/08/21 11:30:20;;;;;;;0.20;0.20;;;22.70;93.10;;;;;;5044961;28;20244;-70
2021/08/21 11:32:59;;;;;;;0.20;0.20;;;22.40;93.20;;;;;;5042218;28;20206;-70
2021/08/21 11:35:29;;;;;;;0.20;0.20;;;22.60;91.90;;;;;;5051297;28;20725;-71
2021/08/21 11:38:01;;;;;;;0.30;0.30;;;22.40;92.00;;;;;;5049886;28;20204;-70
2021/08/21 11:40:37;;;;;;;0.20;0.20;;;22.00;92.30;;;;;;5052824;28;20219;-70
2021/08/21 11:43:06;;;;;;;0.52;0.52;;;21.80;93.30;;;;;;5051320;28;20271;-70
2021/08/21 11:45:32;;;;;;;0.20;0.20;;;21.70;92.00;;;;;;5049837;28;20209;-70
2021/08/21 11:47:58;;;;;;;0.20;0.20;;;21.70;95.60;;;;;;5032199;28;20201;-71
2021/08/21 11:50:24;;;;;;;0.30;0.30;;;21.80;93.80;;;;;;5046942;28;20252;-71
2021/08/21 11:52:52;;;;;;;0.20;0.20;;;22.40;93.60;;;;;;5046589;28;20229;-68
2021/08/21 11:55:18;;;;;;;0.20;0.20;;;22.70;89.40;;;;;;5051676;28;20255;-70
2021/08/21 11:57:46;;;;;;;0.20;0.20;;;22.50;91.80;;;;;;5051449;28;20331;-71
2021/08/21 12:00:26;;;;;;;0.20;0.20;;;22.70;93.90;;;;;;5041717;28;20209;-72
2021/08/21 12:02:58;;;;;;;0.20;0.20;;;23.30;91.40;;;;;;5049486;28;20229;-73
2021/08/21 12:05:24;;;;;;;0.10;0.10;;;23.40;91.40;;;;;;5050819;28;20221;-71
2021/08/21 12:07:50;;;;;;;0.20;0.20;;;23.40;90.30;;;;;;5051193;28;20205;-71
2021/08/21 12:10:16;;;;;;;0.20;0.20;;;23.20;91.30;;;;;;5051054;28;20228;-70
2021/08/21 12:12:41;;;;;;;0.20;0.20;;;23.30;90.30;;;;;;5049584;28;20216;-70
2021/08/21 12:15:08;;;;;;;0.20;0.20;;;23.50;91.70;;;;;;5054614;28;20205;-67
2021/08/21 12:17:34;;;;;;;0.20;0.20;;;24.20;91.80;;;;;;5061804;28;20211;-67
2021/08/21 12:20:01;;;;;;;0.20;0.20;;;25.00;84.70;;;;;;5060516;28;20216;-66
2021/08/21 12:22:28;;;;;;;0.20;0.20;;;24.40;86.50;;;;;;5049249;28;20193;-68
2021/08/21 12:24:58;;;;;;;0.10;0.10;;;24.00;87.00;;;;;;5052827;28;20296;-69
2021/08/21 12:27:26;;;;;;;0.35;0.30;;;23.10;89.80;;;;;;5055978;28;20284;-69
2021/08/21 12:30:24;;;;;;;0.10;0.10;;;22.60;90.10;;;;;;5053320;28;20300;-69
2021/08/21 12:32:50;;;;;;;0.20;0.20;;;22.20;89.10;;;;;;5018818;28;20237;-70
2021/08/21 12:35:18;;;;;;;0.10;0.10;;;22.10;91.70;;;;;;5056003;28;20200;-69
2021/08/21 12:38:00;;;;;;;0.20;0.20;;;21.80;91.60;;;;;;5051164;28;20201;-70
2021/08/21 12:40:26;;;;;;;1.67;0.85;;;21.60;91.10;;;;;;5033962;28;20668;-70
2021/08/21 12:43:01;;;;;;;0.20;0.20;;;21.20;92.80;;;;;;5052421;28;20212;-67
2021/08/21 12:45:27;;;;;;;0.20;0.20;;;21.40;92.70;;;;;;5052658;28;20220;-70
2021/08/21 12:47:53;;;;;;;0.20;0.20;;;21.70;92.30;;;;;;5036061;28;20198;-69
2021/08/21 12:50:21;;;;;;;0.10;0.10;;;22.10;91.90;;;;;;5052064;28;20223;-68
2021/08/21 12:53:07;;;;;;;0.20;0.20;;;22.30;92.00;;;;;;5043735;28;20571;-71
2021/08/21 12:55:33;;;;;;;0.20;0.20;;;22.30;90.00;;;;;;5044447;28;20209;-69
2021/08/21 12:58:07;;;;;;;0.20;0.20;;;22.00;90.80;;;;;;5052793;28;20205;-71